createdAt,value
2023-03-17T17:13:15.397Z,100049.06
2023-03-17T17:18:21.997Z,100050.94
2023-03-17T17:23:29.249Z,100045.38
2023-03-17T17:28:39.467Z,100058.28
2023-03-17T17:33:45.236Z,100050.16
2023-03-17T17:38:51.999Z,100008.50
2023-03-17T17:43:59.860Z,100041.97
2023-03-17T17:49:05.266Z,100035.03
2023-03-17T17:54:10.920Z,100079.06
2023-03-17T17:59:18.718Z,100082.50
2023-03-17T18:04:24.629Z,100108.53
2023-03-17T18:09:31.882Z,100102.63
2023-03-17T18:14:39.946Z,100110.47
2023-03-17T18:19:45.163Z,100076.19
2023-03-17T18:24:50.567Z,100079.84
2023-03-17T18:29:58.465Z,100107.38
2023-03-17T18:35:07.075Z,100115.19
2023-03-17T18:40:18.100Z,100116.25
2023-03-17T18:45:26.742Z,100124.16
2023-03-17T18:50:32.595Z,100105.38
2023-03-17T18:55:37.912Z,100109.00
2023-03-17T19:00:45.991Z,100115.09
2023-03-17T19:05:51.668Z,100109.19
2023-03-17T19:10:56.752Z,100106.72
2023-03-17T19:16:04.643Z,100101.66
2023-03-17T19:21:10.280Z,100100.88
2023-03-17T19:26:15.506Z,100100.88
2023-03-17T19:31:24.847Z,100104.31
2023-03-17T19:36:30.142Z,100103.47
2023-03-17T19:41:35.572Z,100094.00
2023-03-17T19:46:43.313Z,100106.06
2023-03-17T19:51:49.079Z,100106.06
2023-03-17T19:56:54.520Z,100107.72
2023-03-17T20:02:02.286Z,100125.72
2023-03-17T20:07:07.558Z,100124.06
2023-03-17T20:12:12.650Z,100135.34
2023-03-17T20:17:20.968Z,100152.56
2023-03-17T20:22:26.181Z,100156.16
2023-03-17T20:27:32.215Z,100166.56
2023-03-17T20:32:40.052Z,100156.34
2023-03-17T20:37:45.899Z,100183.28
2023-03-17T20:42:52.019Z,100191.34
2023-03-17T20:48:00.869Z,100169.31
2023-03-17T20:53:06.088Z,100164.63
2023-03-17T20:58:13.612Z,100163.41
2023-03-17T21:03:21.352Z,100156.94
2023-03-17T21:08:26.726Z,100149.81
2023-03-17T21:13:33.062Z,100154.47
2023-03-17T21:18:40.906Z,100154.72
2023-03-17T21:23:46.193Z,100146.56
2023-03-17T21:28:52.666Z,100139.91
2023-03-17T21:34:00.524Z,100150.28
2023-03-17T21:39:06.722Z,100157.25
2023-03-17T21:44:15.967Z,100153.09
2023-03-17T21:49:24.871Z,100165.13
2023-03-17T21:54:30.419Z,100166.06
2023-03-17T21:59:35.840Z,100167.94
2023-03-17T22:04:43.748Z,100169.81
2023-03-17T22:09:48.976Z,100171.59
2023-03-17T22:14:54.309Z,100173.28
2023-03-17T22:20:02.322Z,100174.97
2023-03-17T22:25:08.888Z,100170.78
2023-03-17T22:30:15.738Z,100167.56
2023-03-17T22:35:25.070Z,100165.91
